Time;durP1;ratioP1;P1;durP2;ratioP2;P2;SDS_P1;SDS_P2;PMS_P1;PMS_P2;Temp;Humidity;BMP_temperature;BMP_pressure;BME280_temperature;BME280_humidity;BME280_pressure;Samples;Min_cycle;Max_cycle;Signal;HPM_P1;HPM_P2
2023/04/30 00:01:10;;;;;;;8.80;8.50;;;8.70;99.90;;;;;;5137500;27;20921;-68
2023/04/30 00:03:37;;;;;;;8.70;8.40;;;8.70;99.90;;;;;;5144312;27;20860;-68
2023/04/30 00:06:04;;;;;;;10.00;9.60;;;8.70;99.90;;;;;;5135228;27;21033;-68
2023/04/30 00:08:31;;;;;;;10.60;10.10;;;8.70;99.90;;;;;;5143516;27;20965;-69
2023/04/30 00:10:58;;;;;;;11.30;10.70;;;8.70;99.90;;;;;;5144894;27;20480;-68
2023/04/30 00:13:26;;;;;;;12.17;11.33;;;8.70;99.90;;;;;;5134032;27;20486;-68
2023/04/30 00:15:53;;;;;;;9.80;9.30;;;8.70;99.90;;;;;;5138297;27;20842;-68
2023/04/30 00:18:21;;;;;;;12.13;10.27;;;8.70;99.90;;;;;;5135788;27;20536;-69
2023/04/30 00:20:50;;;;;;;9.73;9.23;;;8.70;99.90;;;;;;5141403;27;20510;-68
2023/04/30 00:23:18;;;;;;;9.93;9.47;;;8.60;99.90;;;;;;5145765;27;20654;-68
2023/04/30 00:25:45;;;;;;;10.10;9.70;;;8.50;99.90;;;;;;5146012;27;20851;-68
2023/04/30 00:28:13;;;;;;;9.80;9.40;;;8.40;99.90;;;;;;5149659;27;20860;-69
2023/04/30 00:30:41;;;;;;;10.10;9.70;;;8.40;99.90;;;;;;5139559;27;21068;-69
2023/04/30 00:33:08;;;;;;;10.80;10.30;;;8.40;99.90;;;;;;5143027;27;20461;-69
2023/04/30 00:35:36;;;;;;;9.20;8.90;;;8.30;99.90;;;;;;5142827;27;20462;-70
2023/04/30 00:38:02;;;;;;;8.17;7.87;;;8.30;99.90;;;;;;5136604;27;20460;-69
2023/04/30 00:40:30;;;;;;;8.63;8.33;;;8.20;99.90;;;;;;5142942;27;20508;-69
2023/04/30 00:42:57;;;;;;;9.43;9.13;;;8.10;99.90;;;;;;5145620;27;20507;-69
2023/04/30 00:45:24;;;;;;;10.03;9.63;;;8.00;99.90;;;;;;5136770;27;20474;-69
2023/04/30 00:47:51;;;;;;;8.53;8.23;;;7.90;99.90;;;;;;5140992;27;20458;-69
2023/04/30 00:50:18;;;;;;;9.10;8.80;;;7.80;99.90;;;;;;5142577;27;20487;-68
2023/04/30 00:52:46;;;;;;;9.20;8.90;;;7.70;99.90;;;;;;5149016;27;20869;-70
2023/04/30 00:55:14;;;;;;;9.10;8.80;;;7.60;99.90;;;;;;5139827;27;20471;-69
2023/04/30 00:57:42;;;;;;;8.80;8.50;;;7.50;99.90;;;;;;5139814;27;20461;-69
2023/04/30 01:00:11;;;;;;;8.63;8.33;;;7.40;99.90;;;;;;5134448;27;20579;-69
2023/04/30 01:02:38;;;;;;;8.90;8.60;;;7.30;99.90;;;;;;5143652;27;20452;-68
2023/04/30 01:05:06;;;;;;;8.87;8.57;;;7.10;99.90;;;;;;5145528;27;20456;-69
2023/04/30 01:07:34;;;;;;;9.63;9.33;;;7.00;99.90;;;;;;5144121;27;20495;-69
2023/04/30 01:10:02;;;;;;;9.07;8.77;;;6.90;99.90;;;;;;5146940;27;20498;-69
2023/04/30 01:12:36;;;;;;;9.17;8.87;;;6.90;99.90;;;;;;5135623;27;20572;-69
2023/04/30 01:15:10;;;;;;;9.10;8.80;;;6.80;99.90;;;;;;5149318;27;20471;-69
2023/04/30 01:17:41;;;;;;;8.87;8.57;;;6.80;99.90;;;;;;5136462;27;20493;-69
2023/04/30 01:20:11;;;;;;;9.70;9.40;;;6.80;99.90;;;;;;5153815;27;20892;-69
2023/04/30 01:22:46;;;;;;;8.70;8.40;;;6.80;99.90;;;;;;5138235;27;21019;-69
2023/04/30 01:25:43;;;;;;;9.03;8.73;;;6.70;99.90;;;;;;5139910;27;20463;-69
2023/04/30 01:28:15;;;;;;;9.37;9.07;;;6.60;99.90;;;;;;5133055;27;20542;-68
2023/04/30 01:30:43;;;;;;;8.80;8.50;;;6.70;99.90;;;;;;5139823;27;20499;-69
2023/04/30 01:33:10;;;;;;;8.53;8.23;;;6.70;99.90;;;;;;5139228;27;20454;-67
2023/04/30 01:36:07;;;;;;;9.20;8.90;;;6.70;99.90;;;;;;5139376;27;20460;-67
2023/04/30 01:38:49;;;;;;;8.60;8.30;;;6.80;99.90;;;;;;5138392;27;20455;-67
2023/04/30 01:41:28;;;;;;;8.63;8.33;;;6.90;99.90;;;;;;5138115;27;20855;-68
2023/04/30 01:44:11;;;;;;;9.27;8.93;;;6.90;99.90;;;;;;5147464;27;20467;-68
2023/04/30 01:46:40;;;;;;;10.43;9.93;;;6.80;99.90;;;;;;5137667;27;20516;-68
2023/04/30 01:49:15;;;;;;;8.30;8.00;;;6.80;99.90;;;;;;5141734;27;20675;-68
2023/04/30 01:51:44;;;;;;;8.00;7.70;;;6.90;99.90;;;;;;5138738;27;20458;-68
2023/04/30 01:54:21;;;;;;;8.30;8.00;;;6.80;99.90;;;;;;5142583;27;20491;-68
2023/04/30 01:57:03;;;;;;;8.57;8.27;;;6.70;99.90;;;;;;5138303;27;20451;-68
2023/04/30 01:59:34;;;;;;;10.17;9.67;;;6.70;99.90;;;;;;5141466;27;20463;-68
2023/04/30 02:02:02;;;;;;;8.37;8.07;;;6.60;99.90;;;;;;5143974;27;20504;-68
2023/04/30 02:04:29;;;;;;;8.30;8.00;;;6.50;99.90;;;;;;5144123;27;21014;-68
2023/04/30 02:06:57;;;;;;;8.47;8.17;;;6.50;99.90;;;;;;5149394;27;20496;-67
2023/04/30 02:09:23;;;;;;;8.70;8.40;;;6.40;99.90;;;;;;5146589;27;20498;-67
2023/04/30 02:11:50;;;;;;;8.33;8.03;;;6.40;99.90;;;;;;5146562;27;20822;-69
2023/04/30 02:14:17;;;;;;;8.80;8.50;;;6.30;99.90;;;;;;5142432;27;20491;-67
2023/04/30 02:16:45;;;;;;;8.50;8.20;;;6.30;99.90;;;;;;5144102;27;20558;-67
2023/04/30 02:19:12;;;;;;;8.70;8.40;;;6.30;99.90;;;;;;5138688;27;20456;-67
2023/04/30 02:21:39;;;;;;;8.80;8.50;;;6.30;99.90;;;;;;5145890;27;20455;-67
2023/04/30 02:24:07;;;;;;;8.57;8.27;;;6.30;99.90;;;;;;5149309;27;20550;-67
2023/04/30 02:26:35;;;;;;;9.10;8.80;;;6.20;99.90;;;;;;5134647;27;20999;-67
2023/04/30 02:29:02;;;;;;;9.47;9.17;;;6.20;99.90;;;;;;5149600;27;20454;-68
2023/04/30 02:31:29;;;;;;;8.70;8.40;;;6.10;99.90;;;;;;5141355;27;20488;-68
2023/04/30 02:33:57;;;;;;;8.33;8.03;;;6.10;99.90;;;;;;5143210;27;20455;-68
2023/04/30 02:36:24;;;;;;;8.57;8.27;;;6.10;99.90;;;;;;5138118;27;20464;-69
2023/04/30 02:38:51;;;;;;;8.20;7.90;;;6.00;99.90;;;;;;5144151;27;20451;-68
2023/04/30 02:41:18;;;;;;;7.93;7.63;;;6.00;99.90;;;;;;5139274;27;20462;-68
2023/04/30 02:43:45;;;;;;;8.00;7.70;;;5.90;99.90;;;;;;5145053;27;20519;-68
2023/04/30 02:46:12;;;;;;;8.30;8.00;;;5.90;99.90;;;;;;5141797;27;20487;-69
2023/04/30 02:48:39;;;;;;;8.43;8.13;;;5.80;99.90;;;;;;5150602;27;20461;-68
2023/04/30 02:51:07;;;;;;;8.47;8.17;;;5.80;99.90;;;;;;5142605;27;20484;-68
2023/04/30 02:53:35;;;;;;;8.20;7.90;;;5.70;99.90;;;;;;5145233;27;20471;-68
2023/04/30 02:56:02;;;;;;;7.97;7.67;;;5.70;99.90;;;;;;5142361;27;20567;-68
2023/04/30 02:58:29;;;;;;;8.17;7.87;;;5.70;99.90;;;;;;5141932;27;20452;-69
2023/04/30 03:00:56;;;;;;;8.77;8.47;;;5.70;99.90;;;;;;5139253;27;20460;-69
2023/04/30 03:03:23;;;;;;;8.50;8.20;;;5.70;99.90;;;;;;5147243;27;20470;-69
2023/04/30 03:05:50;;;;;;;8.13;7.83;;;5.70;99.90;;;;;;5142524;27;20463;-69
2023/04/30 03:08:20;;;;;;;8.40;8.10;;;5.70;99.90;;;;;;5137107;27;20619;-69
2023/04/30 03:10:47;;;;;;;8.07;7.77;;;5.70;99.90;;;;;;5141473;27;20499;-69
2023/04/30 03:13:14;;;;;;;8.00;7.70;;;5.60;99.90;;;;;;5151583;27;20949;-69
2023/04/30 03:15:40;;;;;;;7.70;7.43;;;5.70;99.90;;;;;;5139321;27;20459;-68
2023/04/30 03:18:08;;;;;;;8.43;8.13;;;5.70;99.90;;;;;;5144076;27;20483;-69
2023/04/30 03:20:35;;;;;;;8.17;7.87;;;5.80;99.90;;;;;;5138627;27;20922;-69
2023/04/30 03:23:02;;;;;;;7.27;7.07;;;5.80;99.90;;;;;;5148338;27;21014;-69
2023/04/30 03:25:30;;;;;;;7.30;7.10;;;5.90;99.90;;;;;;5139385;27;20513;-68
2023/04/30 03:27:58;;;;;;;8.77;8.37;;;5.90;99.90;;;;;;5149886;27;20461;-69
2023/04/30 03:30:25;;;;;;;6.67;6.47;;;6.10;99.90;;;;;;5135507;27;20593;-68
2023/04/30 03:32:52;;;;;;;6.90;6.70;;;6.00;99.90;;;;;;5139127;27;20492;-68
2023/04/30 03:35:19;;;;;;;7.93;7.60;;;6.00;99.90;;;;;;5134520;27;20965;-69
2023/04/30 03:37:46;;;;;;;7.17;6.87;;;6.10;99.90;;;;;;5146046;27;20463;-68
2023/04/30 03:40:14;;;;;;;7.27;7.07;;;6.10;99.90;;;;;;5132168;27;20479;-68
2023/04/30 03:42:42;;;;;;;6.70;6.50;;;6.10;99.90;;;;;;5135043;27;20460;-69
2023/04/30 03:45:10;;;;;;;6.97;6.77;;;6.20;99.90;;;;;;5139589;27;20467;-69
2023/04/30 03:47:37;;;;;;;7.17;6.97;;;6.20;99.90;;;;;;5145475;27;20496;-68
2023/04/30 03:50:06;;;;;;;7.27;7.07;;;6.20;99.90;;;;;;5146522;27;20480;-68
2023/04/30 03:52:33;;;;;;;6.63;6.43;;;6.30;99.90;;;;;;5138339;27;20463;-68
2023/04/30 03:55:01;;;;;;;6.70;6.50;;;6.20;99.90;;;;;;5140928;27;20458;-68
2023/04/30 03:57:28;;;;;;;7.30;7.10;;;6.10;99.90;;;;;;5142456;27;20932;-68
2023/04/30 03:59:57;;;;;;;7.60;7.40;;;6.10;99.90;;;;;;5134389;27;20514;-69
2023/04/30 04:02:25;;;;;;;8.60;8.30;;;6.10;99.90;;;;;;5138974;27;20563;-69
2023/04/30 04:04:52;;;;;;;8.00;7.70;;;6.00;99.90;;;;;;5150805;27;20451;-68
2023/04/30 04:07:19;;;;;;;7.50;7.30;;;5.80;99.90;;;;;;5135790;27;20454;-69
2023/04/30 04:09:47;;;;;;;8.20;7.90;;;5.70;99.90;;;;;;5143060;27;20486;-68
2023/04/30 04:12:13;;;;;;;8.80;8.50;;;5.70;99.90;;;;;;5144611;27;20461;-69
2023/04/30 04:14:40;;;;;;;8.57;8.27;;;5.70;99.90;;;;;;5147870;27;20446;-68
2023/04/30 04:17:08;;;;;;;8.60;8.30;;;5.70;99.90;;;;;;5140089;27;20484;-69
2023/04/30 04:19:35;;;;;;;8.37;8.07;;;5.70;99.90;;;;;;5135720;27;21076;-68
2023/04/30 04:22:03;;;;;;;8.50;8.20;;;5.70;99.90;;;;;;5143733;27;20462;-68
2023/04/30 04:24:30;;;;;;;9.50;8.97;;;5.60;99.90;;;;;;5144406;27;20481;-68
2023/04/30 04:26:58;;;;;;;8.70;8.40;;;5.70;99.90;;;;;;5141616;27;20473;-68
2023/04/30 04:29:25;;;;;;;7.50;7.30;;;5.80;99.90;;;;;;5143747;27;20969;-69
2023/04/30 04:31:54;;;;;;;8.73;8.33;;;5.80;99.90;;;;;;5143143;27;20542;-69
2023/04/30 04:34:22;;;;;;;8.03;7.73;;;5.90;99.90;;;;;;5142438;27;20461;-69
2023/04/30 04:36:49;;;;;;;8.23;7.83;;;5.90;99.90;;;;;;5137316;27;20471;-69
2023/04/30 04:39:15;;;;;;;10.03;9.43;;;5.90;99.90;;;;;;5140907;27;20466;-68
2023/04/30 04:41:42;;;;;;;7.20;7.00;;;6.00;99.90;;;;;;5138421;27;20494;-68
2023/04/30 04:44:11;;;;;;;6.97;6.77;;;6.00;99.90;;;;;;5145446;27;20507;-68
2023/04/30 04:46:38;;;;;;;7.30;7.00;;;6.00;99.90;;;;;;5139013;27;21193;-68
2023/04/30 04:49:05;;;;;;;6.47;6.27;;;6.10;99.90;;;;;;5148696;27;20449;-68
2023/04/30 04:51:34;;;;;;;7.37;7.17;;;6.20;99.90;;;;;;5146214;27;20491;-69
2023/04/30 04:54:01;;;;;;;6.87;6.67;;;6.30;99.90;;;;;;5139618;27;20533;-68
2023/04/30 04:56:28;;;;;;;8.50;8.10;;;6.30;99.90;;;;;;5136161;27;20885;-69
2023/04/30 04:58:55;;;;;;;7.20;6.90;;;6.20;99.90;;;;;;5141222;27;20795;-69
2023/04/30 05:01:22;;;;;;;8.60;8.23;;;6.10;99.90;;;;;;5138073;27;20454;-68
2023/04/30 05:03:49;;;;;;;7.30;7.10;;;6.20;99.90;;;;;;5135126;27;20541;-68
2023/04/30 05:06:17;;;;;;;6.80;6.60;;;6.20;99.90;;;;;;5134259;27;20451;-69
2023/04/30 05:08:45;;;;;;;6.70;6.50;;;6.20;99.90;;;;;;5140210;27;20860;-69
2023/04/30 05:11:12;;;;;;;6.93;6.73;;;6.20;99.90;;;;;;5137520;27;20486;-69
2023/04/30 05:13:40;;;;;;;7.80;7.50;;;6.20;99.90;;;;;;5143941;27;20447;-69
2023/04/30 05:16:06;;;;;;;9.10;8.80;;;6.20;99.90;;;;;;5142452;27;20452;-68
2023/04/30 05:18:35;;;;;;;7.50;7.30;;;6.30;99.90;;;;;;5144157;27;20518;-69
2023/04/30 05:21:03;;;;;;;7.27;7.07;;;6.40;99.90;;;;;;5138389;27;20542;-68
2023/04/30 05:23:30;;;;;;;7.00;6.80;;;6.40;99.90;;;;;;5147887;27;20458;-68
2023/04/30 05:25:58;;;;;;;6.90;6.70;;;6.40;99.90;;;;;;5139203;27;20440;-69
2023/04/30 05:28:25;;;;;;;7.30;7.10;;;6.40;99.90;;;;;;5140508;27;21029;-69
2023/04/30 05:30:52;;;;;;;6.97;6.77;;;6.50;99.90;;;;;;5138787;27;21102;-68
2023/04/30 05:33:19;;;;;;;7.00;6.80;;;6.50;99.90;;;;;;5132770;27;20961;-68
2023/04/30 05:35:46;;;;;;;7.50;7.30;;;6.60;99.90;;;;;;5147043;27;20459;-68
2023/04/30 05:38:14;;;;;;;8.60;8.20;;;6.70;99.90;;;;;;5137783;27;22434;-68
2023/04/30 05:40:42;;;;;;;8.23;7.93;;;6.80;99.90;;;;;;5141212;27;20447;-69
2023/04/30 05:43:10;;;;;;;9.50;8.90;;;7.00;99.90;;;;;;5135018;27;20459;-69
2023/04/30 05:45:37;;;;;;;6.93;6.73;;;7.10;99.90;;;;;;5136550;27;20854;-66
2023/04/30 05:48:04;;;;;;;8.30;7.60;;;7.20;99.90;;;;;;5133122;27;20543;-67
2023/04/30 05:50:31;;;;;;;7.00;6.70;;;7.30;99.90;;;;;;5140894;27;20741;-69
2023/04/30 05:52:59;;;;;;;7.77;7.47;;;7.50;99.90;;;;;;5138237;27;20512;-66
2023/04/30 05:55:26;;;;;;;7.27;6.97;;;7.60;99.90;;;;;;5142284;27;20959;-67
2023/04/30 05:57:53;;;;;;;9.77;9.33;;;7.70;99.90;;;;;;5137483;27;20463;-67
2023/04/30 06:00:21;;;;;;;9.30;8.90;;;7.80;99.90;;;;;;5137070;27;20539;-67
2023/04/30 06:02:48;;;;;;;6.47;6.27;;;7.90;99.90;;;;;;5142657;27;20498;-68
2023/04/30 06:05:15;;;;;;;8.87;8.43;;;8.10;99.90;;;;;;5137249;27;20449;-68
2023/04/30 06:07:42;;;;;;;8.00;7.70;;;8.20;99.90;;;;;;5139586;27;20461;-67
2023/04/30 06:10:11;;;;;;;9.03;8.37;;;8.30;99.90;;;;;;5141140;27;20482;-67
2023/04/30 06:12:39;;;;;;;8.40;8.10;;;8.40;99.90;;;;;;5140568;27;20479;-66
2023/04/30 06:15:07;;;;;;;7.97;7.57;;;8.60;99.90;;;;;;5141796;27;20557;-68
2023/04/30 06:17:36;;;;;;;6.53;6.33;;;8.70;99.90;;;;;;5139521;27;20486;-67
2023/04/30 06:20:05;;;;;;;8.07;7.80;;;8.80;99.90;;;;;;5140451;27;20457;-67
2023/04/30 06:22:33;;;;;;;9.07;8.67;;;8.90;99.90;;;;;;5141183;27;20455;-67
2023/04/30 06:25:00;;;;;;;9.97;9.47;;;9.00;99.90;;;;;;5142318;27;20452;-67
2023/04/30 06:27:27;;;;;;;8.73;8.43;;;9.10;99.90;;;;;;5143157;27;20487;-68
2023/04/30 06:29:54;;;;;;;9.17;8.77;;;9.20;99.90;;;;;;5143104;27;20460;-67
2023/04/30 06:32:21;;;;;;;9.60;9.20;;;9.40;99.90;;;;;;5145400;27;20495;-67
2023/04/30 06:34:49;;;;;;;10.93;10.23;;;9.40;99.90;;;;;;5138912;27;20465;-67
2023/04/30 06:37:17;;;;;;;9.00;8.70;;;9.50;99.90;;;;;;5134278;27;20976;-67
2023/04/30 06:39:44;;;;;;;11.63;11.13;;;9.50;99.90;;;;;;5140460;27;20465;-67
2023/04/30 06:42:11;;;;;;;9.03;8.73;;;9.60;99.90;;;;;;5143020;27;20460;-67
2023/04/30 06:44:38;;;;;;;13.77;13.07;;;9.70;99.90;;;;;;5138217;27;20459;-67
2023/04/30 06:47:05;;;;;;;10.40;10.00;;;9.70;99.90;;;;;;5141093;27;20458;-67
2023/04/30 06:49:32;;;;;;;11.27;10.77;;;9.80;99.90;;;;;;5138703;27;20456;-67
2023/04/30 06:52:00;;;;;;;9.73;9.33;;;9.90;99.90;;;;;;5135712;27;20524;-67
2023/04/30 06:54:27;;;;;;;9.63;9.23;;;10.00;99.90;;;;;;5140959;27;20523;-67
2023/04/30 06:56:54;;;;;;;10.10;9.70;;;10.00;99.90;;;;;;5137241;27;20554;-67
2023/04/30 06:59:21;;;;;;;10.03;9.63;;;10.10;99.90;;;;;;5137211;27;20463;-67
2023/04/30 07:01:48;;;;;;;10.00;9.60;;;10.20;99.90;;;;;;5142470;27;20938;-68
2023/04/30 07:04:15;;;;;;;9.50;9.20;;;10.20;99.90;;;;;;5133735;27;20488;-68
2023/04/30 07:06:42;;;;;;;11.57;10.97;;;10.30;99.90;;;;;;5140309;27;20462;-68
2023/04/30 07:09:11;;;;;;;10.00;9.60;;;10.30;99.90;;;;;;5145790;27;20965;-69
2023/04/30 07:11:38;;;;;;;12.30;11.70;;;10.40;99.90;;;;;;5135616;27;20583;-67
2023/04/30 07:14:05;;;;;;;9.20;8.90;;;10.50;99.90;;;;;;5149713;27;20952;-69
2023/04/30 07:16:32;;;;;;;11.30;10.67;;;10.60;99.90;;;;;;5139496;27;20479;-68
2023/04/30 07:18:59;;;;;;;10.27;9.83;;;10.70;99.90;;;;;;5142158;27;21159;-68
2023/04/30 07:21:26;;;;;;;9.00;8.70;;;10.80;99.90;;;;;;5137828;27;20555;-67
2023/04/30 07:23:53;;;;;;;14.07;13.17;;;10.90;99.90;;;;;;5140553;27;20472;-69
2023/04/30 07:26:23;;;;;;;9.27;8.97;;;11.00;99.90;;;;;;5138733;27;20513;-69
2023/04/30 07:28:51;;;;;;;10.13;9.70;;;11.10;99.90;;;;;;5136558;27;20458;-69
2023/04/30 07:31:18;;;;;;;9.77;9.37;;;11.30;99.90;;;;;;5142622;27;20472;-69
2023/04/30 07:33:45;;;;;;;9.00;8.70;;;11.40;99.90;;;;;;5134440;27;21011;-68
2023/04/30 07:36:13;;;;;;;8.37;8.07;;;11.50;99.90;;;;;;5140330;27;20480;-68
2023/04/30 07:38:40;;;;;;;10.20;9.70;;;11.60;99.90;;;;;;5142343;27;20495;-68
2023/04/30 07:41:08;;;;;;;9.03;8.73;;;11.80;99.90;;;;;;5136186;27;20461;-67
2023/04/30 07:43:37;;;;;;;12.97;12.37;;;12.00;99.90;;;;;;5132424;27;20535;-67
2023/04/30 07:46:04;;;;;;;14.90;13.70;;;12.20;99.90;;;;;;5124975;27;20459;-68
2023/04/30 07:48:31;;;;;;;13.63;12.87;;;12.40;99.90;;;;;;5136956;27;20467;-68
2023/04/30 07:50:58;;;;;;;11.00;10.60;;;12.50;99.90;;;;;;5136221;27;20815;-68
2023/04/30 07:53:25;;;;;;;11.23;10.83;;;12.40;99.90;;;;;;5139577;27;20944;-68
2023/04/30 07:55:53;;;;;;;14.27;13.00;;;12.50;99.90;;;;;;5142304;27;20468;-68
2023/04/30 07:58:20;;;;;;;13.47;12.43;;;12.60;99.90;;;;;;5136409;27;20478;-68
2023/04/30 08:00:48;;;;;;;12.57;11.93;;;12.70;99.90;;;;;;5136135;27;20474;-67
2023/04/30 08:03:15;;;;;;;14.20;13.50;;;12.70;99.90;;;;;;5143619;27;20451;-67
2023/04/30 08:05:43;;;;;;;10.20;9.80;;;12.70;99.90;;;;;;5136791;27;20456;-68
2023/04/30 08:08:10;;;;;;;10.23;9.83;;;12.90;99.90;;;;;;5133853;27;21042;-68
2023/04/30 08:10:40;;;;;;;11.30;10.80;;;13.10;99.90;;;;;;5139223;27;20471;-68
2023/04/30 08:13:07;;;;;;;10.63;10.23;;;13.30;99.90;;;;;;5131019;27;20937;-68
2023/04/30 08:15:34;;;;;;;13.10;12.40;;;13.40;99.90;;;;;;5135417;27;20476;-69
2023/04/30 08:18:04;;;;;;;14.87;13.90;;;13.50;99.90;;;;;;5133211;27;20479;-68
2023/04/30 08:20:33;;;;;;;11.17;10.77;;;13.40;99.90;;;;;;5143515;27;20769;-69
2023/04/30 08:22:59;;;;;;;11.57;11.07;;;13.40;99.90;;;;;;5142436;27;20747;-68
2023/04/30 08:25:28;;;;;;;12.53;12.03;;;13.60;99.90;;;;;;5137600;27;20471;-68
2023/04/30 08:27:55;;;;;;;10.77;10.37;;;13.50;99.90;;;;;;5135607;27;22345;-68
2023/04/30 08:30:23;;;;;;;11.47;11.07;;;13.80;99.90;;;;;;5140484;27;20510;-69
2023/04/30 08:32:51;;;;;;;13.30;12.70;;;14.10;99.90;;;;;;5131178;27;20509;-69
2023/04/30 08:35:20;;;;;;;11.83;11.33;;;14.40;99.90;;;;;;5136236;27;20452;-68
2023/04/30 08:37:46;;;;;;;14.53;13.73;;;14.80;99.90;;;;;;5136387;27;20552;-68
2023/04/30 08:40:15;;;;;;;12.53;12.03;;;15.60;99.90;;;;;;5140429;27;20451;-68
2023/04/30 08:42:46;;;;;;;13.23;12.63;;;16.10;99.90;;;;;;5134706;27;20504;-68
2023/04/30 08:45:13;;;;;;;13.20;12.60;;;17.00;99.90;;;;;;5128907;27;20464;-69
2023/04/30 08:47:41;;;;;;;12.30;11.80;;;17.50;99.90;;;;;;5140261;27;20539;-68
2023/04/30 08:50:09;;;;;;;11.27;10.87;;;17.90;99.90;;;;;;5132191;27;21239;-69
2023/04/30 08:52:40;;;;;;;15.67;14.80;;;18.30;99.90;;;;;;5139475;27;20487;-69
2023/04/30 08:55:09;;;;;;;12.10;11.70;;;18.70;99.90;;;;;;5135845;27;20781;-69
2023/04/30 08:57:38;;;;;;;12.43;11.73;;;18.90;99.90;;;;;;5133720;27;20531;-69
2023/04/30 09:00:06;;;;;;;11.60;11.20;;;19.30;99.90;;;;;;5136536;27;20947;-69
2023/04/30 09:02:33;;;;;;;14.23;13.40;;;19.70;99.90;;;;;;5133298;27;20455;-69
2023/04/30 09:05:00;;;;;;;11.77;11.37;;;20.20;99.90;;;;;;5136637;27;20467;-69
2023/04/30 09:07:28;;;;;;;11.63;11.23;;;20.20;99.90;;;;;;5130919;27;20949;-69
2023/04/30 09:09:59;;;;;;;13.07;12.40;;;20.60;99.90;;;;;;5137818;27;20476;-67
2023/04/30 09:12:26;;;;;;;11.50;11.10;;;21.60;99.90;;;;;;5132602;27;20541;-67
2023/04/30 09:15:01;;;;;;;12.43;11.93;;;21.30;99.90;;;;;;5143313;27;20452;-68
2023/04/30 09:17:28;;;;;;;12.20;11.70;;;21.30;99.90;;;;;;5134493;27;20927;-68
2023/04/30 09:20:05;;;;;;;14.17;13.57;;;21.70;99.90;;;;;;5141089;27;20459;-68
2023/04/30 09:22:33;;;;;;;12.70;12.20;;;22.00;99.90;;;;;;5134065;27;20524;-68
2023/04/30 09:25:01;;;;;;;13.37;12.87;;;21.70;99.90;;;;;;5137137;27;20509;-68
2023/04/30 09:27:29;;;;;;;13.03;12.53;;;21.10;99.90;;;;;;5133141;27;20492;-68
2023/04/30 09:29:57;;;;;;;13.43;12.87;;;21.60;99.90;;;;;;5147646;27;20455;-68
2023/04/30 09:32:24;;;;;;;13.10;12.60;;;21.60;99.90;;;;;;5138260;27;20510;-68
2023/04/30 09:34:51;;;;;;;12.80;12.30;;;20.90;99.90;;;;;;5141292;27;21034;-68
2023/04/30 09:37:18;;;;;;;15.00;14.27;;;21.60;99.90;;;;;;5143832;27;20512;-68
2023/04/30 09:39:53;;;;;;;13.40;12.90;;;21.00;99.90;;;;;;5142790;27;20463;-68
2023/04/30 09:42:22;;;;;;;13.30;12.80;;;21.30;99.90;;;;;;5136037;27;20454;-68
2023/04/30 09:44:49;;;;;;;14.70;14.10;;;22.10;99.90;;;;;;5138909;27;20538;-68
2023/04/30 09:47:17;;;;;;;14.10;13.50;;;22.30;99.60;;;;;;5146880;27;20964;-69
2023/04/30 09:49:50;;;;;;;14.23;13.63;;;21.80;99.10;;;;;;5140834;27;20949;-68
2023/04/30 09:52:17;;;;;;;15.03;14.23;;;23.00;99.40;;;;;;5139732;27;20533;-68
2023/04/30 09:54:45;;;;;;;14.90;14.20;;;22.80;97.20;;;;;;5146696;27;20459;-69
2023/04/30 09:57:15;;;;;;;13.90;13.30;;;22.40;97.20;;;;;;5142346;27;21185;-68
2023/04/30 09:59:46;;;;;;;14.43;13.83;;;22.70;97.10;;;;;;5139715;27;20491;-68
2023/04/30 10:02:17;;;;;;;15.10;14.40;;;23.30;96.10;;;;;;5145550;27;20543;-68
2023/04/30 10:04:44;;;;;;;14.13;13.53;;;23.50;96.10;;;;;;5142118;27;20450;-68
2023/04/30 10:07:15;;;;;;;14.80;14.20;;;23.90;96.20;;;;;;5140100;27;20956;-69
2023/04/30 10:09:49;;;;;;;14.67;13.97;;;23.80;95.00;;;;;;5138425;27;20499;-70
2023/04/30 10:12:20;;;;;;;16.40;15.50;;;24.50;93.80;;;;;;5142738;27;20483;-70
2023/04/30 10:14:55;;;;;;;16.40;15.60;;;23.90;92.00;;;;;;5134852;27;20457;-69
2023/04/30 10:17:27;;;;;;;14.23;13.63;;;23.30;93.30;;;;;;5141779;27;21007;-68
2023/04/30 10:19:58;;;;;;;15.77;14.93;;;23.10;94.50;;;;;;5141859;27;20548;-68
2023/04/30 10:22:25;;;;;;;16.00;15.10;;;23.30;94.20;;;;;;5150466;27;20957;-68
2023/04/30 10:24:52;;;;;;;14.57;13.87;;;23.30;92.80;;;;;;5146151;27;20509;-68
2023/04/30 10:27:20;;;;;;;14.67;14.07;;;23.20;92.40;;;;;;5145868;27;20459;-68
2023/04/30 10:29:48;;;;;;;14.40;13.80;;;23.60;91.60;;;;;;5146429;27;21048;-68
2023/04/30 10:32:18;;;;;;;14.77;14.07;;;23.30;92.30;;;;;;5141157;27;20479;-69
2023/04/30 10:34:53;;;;;;;15.13;14.43;;;23.80;92.80;;;;;;5148552;27;20759;-69
2023/04/30 10:37:27;;;;;;;15.10;14.30;;;23.50;92.40;;;;;;5148403;27;20988;-68
2023/04/30 10:39:54;;;;;;;14.37;13.77;;;23.50;92.00;;;;;;5151446;27;20534;-68
2023/04/30 10:42:21;;;;;;;15.93;15.23;;;23.50;92.20;;;;;;5143480;27;20451;-68
2023/04/30 10:44:48;;;;;;;14.23;13.63;;;23.70;91.30;;;;;;5136354;27;20933;-68
2023/04/30 10:47:18;;;;;;;15.10;14.40;;;23.80;91.10;;;;;;5139353;27;20489;-69
2023/04/30 10:49:47;;;;;;;16.20;15.30;;;24.10;91.30;;;;;;5146929;27;20539;-68
2023/04/30 10:52:14;;;;;;;15.00;14.30;;;24.10;90.80;;;;;;5141304;27;20573;-69
2023/04/30 10:54:50;;;;;;;14.60;14.00;;;24.10;90.70;;;;;;5149022;27;20459;-69
2023/04/30 10:57:18;;;;;;;14.90;14.30;;;24.50;90.60;;;;;;5134503;27;20456;-68
2023/04/30 10:59:52;;;;;;;15.03;14.30;;;25.10;91.20;;;;;;5139145;27;20529;-69
2023/04/30 11:02:22;;;;;;;14.67;14.00;;;25.50;86.80;;;;;;5137470;27;21025;-67
2023/04/30 11:05:12;;;;;;;16.50;15.60;;;25.40;87.50;;;;;;5143043;27;20529;-69
2023/04/30 11:07:50;;;;;;;14.80;14.20;;;25.10;83.70;;;;;;5150568;27;20436;-68
2023/04/30 11:10:21;;;;;;;14.00;13.40;;;24.20;86.80;;;;;;5142305;27;20549;-68
2023/04/30 11:12:49;;;;;;;14.27;13.67;;;25.00;87.90;;;;;;5142964;27;20495;-68
2023/04/30 11:15:18;;;;;;;15.13;14.47;;;25.70;84.40;;;;;;5143151;27;20478;-69
2023/04/30 11:17:48;;;;;;;14.50;13.90;;;26.10;83.40;;;;;;5142346;27;20566;-68
2023/04/30 11:20:19;;;;;;;14.20;13.50;;;26.00;80.20;;;;;;5148282;27;20455;-68
2023/04/30 11:22:47;;;;;;;14.63;14.03;;;25.30;83.80;;;;;;5144040;27;21223;-68
2023/04/30 11:25:21;;;;;;;15.13;14.43;;;25.40;81.80;;;;;;5140047;27;20462;-68
2023/04/30 11:27:49;;;;;;;13.30;12.80;;;25.20;82.40;;;;;;5142351;27;20490;-67
2023/04/30 11:30:17;;;;;;;14.17;13.57;;;25.20;83.90;;;;;;5142912;27;20462;-68
2023/04/30 11:32:47;;;;;;;14.80;14.10;;;25.50;83.40;;;;;;5142541;27;20976;-68
2023/04/30 11:35:19;;;;;;;14.57;13.53;;;26.50;82.40;;;;;;5138737;27;20462;-67
2023/04/30 11:37:48;;;;;;;14.80;14.00;;;26.80;79.90;;;;;;5142763;27;20558;-69
2023/04/30 11:40:15;;;;;;;14.13;13.43;;;27.10;76.10;;;;;;5133806;27;20868;-68
2023/04/30 11:42:45;;;;;;;14.77;14.17;;;26.50;75.10;;;;;;5142088;27;20460;-68
2023/04/30 11:45:14;;;;;;;14.77;14.17;;;26.20;75.10;;;;;;5141689;27;20509;-68
2023/04/30 11:47:43;;;;;;;14.53;13.93;;;25.70;75.30;;;;;;5136103;27;20543;-68
2023/04/30 11:50:13;;;;;;;14.43;13.83;;;25.80;76.50;;;;;;5146914;27;20458;-67
2023/04/30 11:52:41;;;;;;;14.60;13.97;;;25.40;77.10;;;;;;5135054;27;20942;-68
2023/04/30 11:55:15;;;;;;;13.97;13.37;;;25.30;76.00;;;;;;5136688;27;20465;-68
2023/04/30 11:57:43;;;;;;;14.27;13.67;;;26.30;76.30;;;;;;5142467;27;20439;-67
2023/04/30 12:00:13;;;;;;;13.27;12.77;;;26.60;73.80;;;;;;5146599;27;20454;-68
2023/04/30 12:02:40;;;;;;;14.20;13.60;;;26.20;75.10;;;;;;5131047;27;20465;-68
2023/04/30 12:05:15;;;;;;;14.00;13.40;;;26.50;76.00;;;;;;5143276;27;20459;-68
2023/04/30 12:07:46;;;;;;;13.70;13.13;;;26.40;73.30;;;;;;5142021;27;20451;-68
2023/04/30 12:10:14;;;;;;;13.93;13.33;;;26.70;73.20;;;;;;5138066;27;20906;-67
2023/04/30 12:12:44;;;;;;;13.30;12.80;;;26.90;72.30;;;;;;5137243;27;20484;-68
2023/04/30 12:15:13;;;;;;;14.23;13.63;;;27.00;71.80;;;;;;5139932;27;20471;-67
2023/04/30 12:17:40;;;;;;;13.50;13.00;;;26.10;72.00;;;;;;5136604;27;20484;-70
2023/04/30 12:20:09;;;;;;;13.97;13.37;;;26.00;72.40;;;;;;5140601;27;20460;-66
2023/04/30 12:22:38;;;;;;;14.10;13.50;;;26.40;74.30;;;;;;5130947;27;20449;-66
2023/04/30 12:25:14;;;;;;;13.07;12.57;;;27.00;72.30;;;;;;5145366;27;20462;-66
2023/04/30 12:27:42;;;;;;;14.77;14.17;;;27.00;71.00;;;;;;5137927;27;20456;-68
2023/04/30 12:30:10;;;;;;;14.97;14.37;;;26.50;70.70;;;;;;5136861;27;20455;-68
2023/04/30 12:32:41;;;;;;;14.60;14.00;;;26.10;71.00;;;;;;5138921;27;20989;-67
2023/04/30 12:35:14;;;;;;;13.63;13.03;;;25.80;73.10;;;;;;5134798;27;20555;-67
2023/04/30 12:37:44;;;;;;;13.40;12.90;;;24.30;72.20;;;;;;5138367;27;20817;-68
2023/04/30 12:40:12;;;;;;;13.33;12.83;;;25.00;73.10;;;;;;5136843;27;20455;-67
2023/04/30 12:42:41;;;;;;;14.70;14.10;;;26.00;71.90;;;;;;5136646;27;20475;-68
2023/04/30 12:45:09;;;;;;;14.60;14.00;;;27.20;70.20;;;;;;5135685;27;20465;-67
2023/04/30 12:47:40;;;;;;;13.77;13.27;;;28.40;69.40;;;;;;5139404;27;20502;-67
2023/04/30 12:50:11;;;;;;;13.97;13.37;;;27.40;64.10;;;;;;5137404;27;20467;-68